sensor_id;sensor_type;location;lat;lon;timestamp;pressure;altitude;pressure_sealevel;temperature;humidity
54872;BME280;43914;57.680;11.982;2023-10-31T00:01:16;98910.92;;;3.59;100.00
54872;BME280;43914;57.680;11.982;2023-10-31T00:03:41;98900.76;;;3.56;100.00
54872;BME280;43914;57.680;11.982;2023-10-31T00:06:08;98903.88;;;3.55;100.00
54872;BME280;43914;57.680;11.982;2023-10-31T00:08:33;98909.77;;;3.53;100.00
54872;BME280;43914;57.680;11.982;2023-10-31T00:10:59;98910.67;;;3.49;100.00
54872;BME280;43914;57.680;11.982;2023-10-31T00:13:24;98909.79;;;3.46;100.00
54872;BME280;43914;57.680;11.982;2023-10-31T00:15:51;98914.60;;;3.42;100.00
54872;BME280;43914;57.680;11.982;2023-10-31T00:18:16;98912.42;;;3.40;100.00
54872;BME280;43914;57.680;11.982;2023-10-31T00:20:42;98907.23;;;3.42;100.00
54872;BME280;43914;57.680;11.982;2023-10-31T00:23:07;98911.52;;;3.45;100.00
54872;BME280;43914;57.680;11.982;2023-10-31T00:25:32;98910.80;;;3.43;100.00
54872;BME280;43914;57.680;11.982;2023-10-31T00:27:58;98913.73;;;3.42;100.00
54872;BME280;43914;57.680;11.982;2023-10-31T00:30:23;98921.35;;;3.41;100.00
54872;BME280;43914;57.680;11.982;2023-10-31T00:32:48;98909.95;;;3.39;100.00
54872;BME280;43914;57.680;11.982;2023-10-31T00:35:14;98909.88;;;3.39;100.00
54872;BME280;43914;57.680;11.982;2023-10-31T00:37:39;98904.70;;;3.36;100.00
54872;BME280;43914;57.680;11.982;2023-10-31T00:40:08;98911.06;;;3.35;100.00
54872;BME280;43914;57.680;11.982;2023-10-31T00:42:38;98915.77;;;3.33;100.00
54872;BME280;43914;57.680;11.982;2023-10-31T00:45:05;98914.03;;;3.34;100.00
54872;BME280;43914;57.680;11.982;2023-10-31T00:47:30;98905.11;;;3.36;100.00
54872;BME280;43914;57.680;11.982;2023-10-31T00:49:55;98909.41;;;3.37;100.00
54872;BME280;43914;57.680;11.982;2023-10-31T00:52:21;98910.34;;;3.37;100.00
54872;BME280;43914;57.680;11.982;2023-10-31T00:54:46;98904.48;;;3.32;100.00
54872;BME280;43914;57.680;11.982;2023-10-31T00:57:12;98903.80;;;3.34;100.00
54872;BME280;43914;57.680;11.982;2023-10-31T00:59:37;98899.67;;;3.30;100.00
54872;BME280;43914;57.680;11.982;2023-10-31T01:02:04;98902.02;;;3.26;100.00
54872;BME280;43914;57.680;11.982;2023-10-31T01:04:30;98905.40;;;3.23;100.00
54872;BME280;43914;57.680;11.982;2023-10-31T01:06:56;98905.47;;;3.21;100.00
54872;BME280;43914;57.680;11.982;2023-10-31T01:09:22;98905.60;;;3.21;100.00
54872;BME280;43914;57.680;11.982;2023-10-31T01:11:47;98908.56;;;3.20;100.00
54872;BME280;43914;57.680;11.982;2023-10-31T01:14:13;98900.98;;;3.18;100.00
54872;BME280;43914;57.680;11.982;2023-10-31T01:16:40;98901.52;;;3.16;100.00
54872;BME280;43914;57.680;11.982;2023-10-31T01:19:06;98897.95;;;3.14;100.00
54872;BME280;43914;57.680;11.982;2023-10-31T01:21:32;98896.73;;;3.15;100.00
54872;BME280;43914;57.680;11.982;2023-10-31T01:23:59;98897.86;;;3.12;100.00
54872;BME280;43914;57.680;11.982;2023-10-31T01:26:25;98895.91;;;3.01;100.00
54872;BME280;43914;57.680;11.982;2023-10-31T01:28:50;98897.12;;;2.92;100.00
54872;BME280;43914;57.680;11.982;2023-10-31T01:31:17;98893.86;;;2.85;100.00
54872;BME280;43914;57.680;11.982;2023-10-31T01:33:42;98888.63;;;2.82;100.00
54872;BME280;43914;57.680;11.982;2023-10-31T01:36:08;98884.43;;;2.77;100.00
54872;BME280;43914;57.680;11.982;2023-10-31T01:38:35;98880.05;;;2.70;100.00
54872;BME280;43914;57.680;11.982;2023-10-31T01:41:00;98875.25;;;2.64;100.00
54872;BME280;43914;57.680;11.982;2023-10-31T01:43:36;98878.89;;;2.57;100.00
54872;BME280;43914;57.680;11.982;2023-10-31T01:46:03;98887.30;;;2.50;100.00
54872;BME280;43914;57.680;11.982;2023-10-31T01:48:30;98891.67;;;2.43;100.00
54872;BME280;43914;57.680;11.982;2023-10-31T01:50:59;98887.72;;;2.39;100.00
54872;BME280;43914;57.680;11.982;2023-10-31T01:53:26;98889.91;;;2.36;100.00
54872;BME280;43914;57.680;11.982;2023-10-31T01:55:54;98883.89;;;2.37;100.00
54872;BME280;43914;57.680;11.982;2023-10-31T01:58:25;98883.91;;;2.38;100.00
54872;BME280;43914;57.680;11.982;2023-10-31T02:00:55;98880.42;;;2.39;100.00
54872;BME280;43914;57.680;11.982;2023-10-31T02:03:21;98879.31;;;2.41;100.00
54872;BME280;43914;57.680;11.982;2023-10-31T02:05:46;98876.83;;;2.41;100.00
54872;BME280;43914;57.680;11.982;2023-10-31T02:08:12;98872.00;;;2.43;100.00
54872;BME280;43914;57.680;11.982;2023-10-31T02:10:38;98874.63;;;2.43;100.00
54872;BME280;43914;57.680;11.982;2023-10-31T02:13:13;98866.35;;;2.42;100.00
54872;BME280;43914;57.680;11.982;2023-10-31T02:15:39;98870.27;;;2.42;100.00
54872;BME280;43914;57.680;11.982;2023-10-31T02:18:06;98876.77;;;2.40;100.00
54872;BME280;43914;57.680;11.982;2023-10-31T02:20:32;98863.70;;;2.37;100.00
54872;BME280;43914;57.680;11.982;2023-10-31T02:22:57;98862.26;;;2.36;100.00
54872;BME280;43914;57.680;11.982;2023-10-31T02:25:23;98857.59;;;2.30;100.00
54872;BME280;43914;57.680;11.982;2023-10-31T02:27:48;98856.61;;;2.25;100.00
54872;BME280;43914;57.680;11.982;2023-10-31T02:30:14;98853.02;;;2.21;100.00
54872;BME280;43914;57.680;11.982;2023-10-31T02:32:40;98850.38;;;2.19;100.00
54872;BME280;43914;57.680;11.982;2023-10-31T02:35:07;98854.87;;;2.19;100.00
54872;BME280;43914;57.680;11.982;2023-10-31T02:37:34;98859.23;;;2.17;100.00
54872;BME280;43914;57.680;11.982;2023-10-31T02:40:00;98857.30;;;2.14;100.00
54872;BME280;43914;57.680;11.982;2023-10-31T02:42:26;98856.61;;;2.12;100.00
54872;BME280;43914;57.680;11.982;2023-10-31T02:44:52;98855.88;;;2.09;100.00
54872;BME280;43914;57.680;11.982;2023-10-31T02:47:18;98851.40;;;2.07;100.00
54872;BME280;43914;57.680;11.982;2023-10-31T02:49:43;98844.58;;;2.05;100.00
54872;BME280;43914;57.680;11.982;2023-10-31T02:52:09;98847.02;;;2.00;100.00
54872;BME280;43914;57.680;11.982;2023-10-31T02:54:34;98846.64;;;1.99;100.00
54872;BME280;43914;57.680;11.982;2023-10-31T02:57:00;98843.03;;;1.95;100.00
54872;BME280;43914;57.680;11.982;2023-10-31T02:59:25;98842.23;;;1.90;100.00
54872;BME280;43914;57.680;11.982;2023-10-31T03:01:52;98842.52;;;1.89;100.00
54872;BME280;43914;57.680;11.982;2023-10-31T03:04:17;98844.56;;;1.88;100.00
54872;BME280;43914;57.680;11.982;2023-10-31T03:06:43;98845.42;;;1.86;100.00
54872;BME280;43914;57.680;11.982;2023-10-31T03:09:09;98840.89;;;1.86;100.00
54872;BME280;43914;57.680;11.982;2023-10-31T03:11:35;98835.10;;;1.85;100.00
54872;BME280;43914;57.680;11.982;2023-10-31T03:14:01;98839.48;;;1.86;100.00
54872;BME280;43914;57.680;11.982;2023-10-31T03:16:26;98842.84;;;1.87;100.00
54872;BME280;43914;57.680;11.982;2023-10-31T03:18:52;98838.30;;;1.87;100.00
54872;BME280;43914;57.680;11.982;2023-10-31T03:21:18;98832.41;;;1.86;100.00
54872;BME280;43914;57.680;11.982;2023-10-31T03:23:47;98836.46;;;1.86;100.00
54872;BME280;43914;57.680;11.982;2023-10-31T03:26:14;98832.14;;;1.86;100.00
54872;BME280;43914;57.680;11.982;2023-10-31T03:28:40;98838.97;;;1.85;100.00
54872;BME280;43914;57.680;11.982;2023-10-31T03:31:05;98835.92;;;1.86;100.00
54872;BME280;43914;57.680;11.982;2023-10-31T03:33:31;98839.40;;;1.86;100.00
54872;BME280;43914;57.680;11.982;2023-10-31T03:35:57;98834.91;;;1.82;100.00
54872;BME280;43914;57.680;11.982;2023-10-31T03:38:22;98826.38;;;1.80;100.00
54872;BME280;43914;57.680;11.982;2023-10-31T03:40:48;98818.87;;;1.78;100.00
54872;BME280;43914;57.680;11.982;2023-10-31T03:43:13;98816.95;;;1.78;100.00
54872;BME280;43914;57.680;11.982;2023-10-31T03:45:40;98808.21;;;1.75;100.00
54872;BME280;43914;57.680;11.982;2023-10-31T03:48:05;98805.70;;;1.69;100.00
54872;BME280;43914;57.680;11.982;2023-10-31T03:50:31;98797.98;;;1.64;100.00
54872;BME280;43914;57.680;11.982;2023-10-31T03:52:57;98795.79;;;1.62;100.00
54872;BME280;43914;57.680;11.982;2023-10-31T03:55:23;98795.63;;;1.60;100.00
54872;BME280;43914;57.680;11.982;2023-10-31T03:57:49;98795.80;;;1.60;100.00
54872;BME280;43914;57.680;11.982;2023-10-31T04:00:15;98788.70;;;1.57;100.00
54872;BME280;43914;57.680;11.982;2023-10-31T04:02:40;98788.80;;;1.56;100.00
54872;BME280;43914;57.680;11.982;2023-10-31T04:05:06;98791.45;;;1.54;100.00
54872;BME280;43914;57.680;11.982;2023-10-31T04:07:32;98791.60;;;1.50;100.00
54872;BME280;43914;57.680;11.982;2023-10-31T04:09:57;98790.29;;;1.44;100.00
54872;BME280;43914;57.680;11.982;2023-10-31T04:12:23;98789.95;;;1.39;100.00
54872;BME280;43914;57.680;11.982;2023-10-31T04:14:48;98797.13;;;1.37;100.00
54872;BME280;43914;57.680;11.982;2023-10-31T04:17:14;98801.95;;;1.36;100.00
54872;BME280;43914;57.680;11.982;2023-10-31T04:19:39;98802.80;;;1.35;100.00
54872;BME280;43914;57.680;11.982;2023-10-31T04:22:05;98807.98;;;1.36;100.00
54872;BME280;43914;57.680;11.982;2023-10-31T04:24:31;98812.21;;;1.37;100.00
54872;BME280;43914;57.680;11.982;2023-10-31T04:26:56;98807.75;;;1.38;100.00
54872;BME280;43914;57.680;11.982;2023-10-31T04:29:23;98811.17;;;1.36;100.00
54872;BME280;43914;57.680;11.982;2023-10-31T04:31:48;98809.39;;;1.33;100.00
54872;BME280;43914;57.680;11.982;2023-10-31T04:34:14;98807.79;;;1.32;100.00
54872;BME280;43914;57.680;11.982;2023-10-31T04:36:39;98800.80;;;1.31;100.00
54872;BME280;43914;57.680;11.982;2023-10-31T04:39:05;98796.13;;;1.28;100.00
54872;BME280;43914;57.680;11.982;2023-10-31T04:41:30;98794.05;;;1.25;100.00
54872;BME280;43914;57.680;11.982;2023-10-31T04:43:56;98795.80;;;1.23;100.00
54872;BME280;43914;57.680;11.982;2023-10-31T04:46:21;98796.17;;;1.20;100.00
54872;BME280;43914;57.680;11.982;2023-10-31T04:48:47;98800.09;;;1.20;100.00
54872;BME280;43914;57.680;11.982;2023-10-31T04:51:12;98800.71;;;1.20;100.00
54872;BME280;43914;57.680;11.982;2023-10-31T04:53:38;98794.91;;;1.19;100.00
54872;BME280;43914;57.680;11.982;2023-10-31T04:56:04;98794.64;;;1.18;100.00
54872;BME280;43914;57.680;11.982;2023-10-31T04:58:29;98793.48;;;1.17;100.00
54872;BME280;43914;57.680;11.982;2023-10-31T05:00:55;98797.98;;;1.18;100.00
54872;BME280;43914;57.680;11.982;2023-10-31T05:03:20;98807.66;;;1.20;100.00
54872;BME280;43914;57.680;11.982;2023-10-31T05:05:45;98805.59;;;1.20;100.00
54872;BME280;43914;57.680;11.982;2023-10-31T05:08:11;98791.68;;;1.19;100.00
54872;BME280;43914;57.680;11.982;2023-10-31T05:10:37;98783.48;;;1.18;100.00
54872;BME280;43914;57.680;11.982;2023-10-31T05:13:02;98787.25;;;1.14;100.00
54872;BME280;43914;57.680;11.982;2023-10-31T05:15:28;98792.65;;;1.12;100.00
54872;BME280;43914;57.680;11.982;2023-10-31T05:17:54;98789.19;;;1.08;100.00
54872;BME280;43914;57.680;11.982;2023-10-31T05:20:19;98785.59;;;1.06;100.00
54872;BME280;43914;57.680;11.982;2023-10-31T05:22:45;98786.19;;;1.05;100.00
54872;BME280;43914;57.680;11.982;2023-10-31T05:25:11;98789.79;;;1.06;100.00
54872;BME280;43914;57.680;11.982;2023-10-31T05:27:36;98788.83;;;1.07;100.00
54872;BME280;43914;57.680;11.982;2023-10-31T05:30:03;98788.61;;;1.07;100.00
54872;BME280;43914;57.680;11.982;2023-10-31T05:32:28;98790.48;;;1.07;100.00
54872;BME280;43914;57.680;11.982;2023-10-31T05:34:54;98788.85;;;1.06;100.00
54872;BME280;43914;57.680;11.982;2023-10-31T05:37:19;98790.26;;;1.03;100.00
54872;BME280;43914;57.680;11.982;2023-10-31T05:39:45;98798.95;;;1.03;100.00
54872;BME280;43914;57.680;11.982;2023-10-31T05:42:10;98795.77;;;1.03;100.00
54872;BME280;43914;57.680;11.982;2023-10-31T05:44:36;98793.74;;;1.02;100.00
54872;BME280;43914;57.680;11.982;2023-10-31T05:47:01;98791.78;;;1.02;100.00
54872;BME280;43914;57.680;11.982;2023-10-31T05:49:27;98795.95;;;1.03;100.00
54872;BME280;43914;57.680;11.982;2023-10-31T05:51:53;98791.54;;;1.06;100.00
54872;BME280;43914;57.680;11.982;2023-10-31T05:54:18;98795.57;;;1.08;100.00
54872;BME280;43914;57.680;11.982;2023-10-31T05:56:45;98800.30;;;1.06;100.00
54872;BME280;43914;57.680;11.982;2023-10-31T05:59:11;98794.95;;;1.05;100.00
54872;BME280;43914;57.680;11.982;2023-10-31T06:01:37;98799.38;;;1.05;100.00
54872;BME280;43914;57.680;11.982;2023-10-31T06:04:02;98793.88;;;1.05;100.00
54872;BME280;43914;57.680;11.982;2023-10-31T06:06:31;98795.17;;;1.05;100.00
54872;BME280;43914;57.680;11.982;2023-10-31T06:08:56;98796.62;;;1.01;100.00
54872;BME280;43914;57.680;11.982;2023-10-31T06:11:22;98805.31;;;1.01;100.00
54872;BME280;43914;57.680;11.982;2023-10-31T06:13:47;98811.27;;;0.98;100.00
54872;BME280;43914;57.680;11.982;2023-10-31T06:16:13;98809.73;;;0.98;100.00
54872;BME280;43914;57.680;11.982;2023-10-31T06:18:38;98809.47;;;0.97;100.00
54872;BME280;43914;57.680;11.982;2023-10-31T06:21:05;98808.88;;;0.96;100.00
54872;BME280;43914;57.680;11.982;2023-10-31T06:23:30;98813.40;;;0.93;100.00
54872;BME280;43914;57.680;11.982;2023-10-31T06:25:56;98810.14;;;0.87;100.00
54872;BME280;43914;57.680;11.982;2023-10-31T06:28:23;98809.95;;;0.84;100.00
54872;BME280;43914;57.680;11.982;2023-10-31T06:30:49;98805.73;;;0.82;100.00
54872;BME280;43914;57.680;11.982;2023-10-31T06:33:14;98808.91;;;0.81;100.00
54872;BME280;43914;57.680;11.982;2023-10-31T06:35:39;98806.83;;;0.82;100.00
54872;BME280;43914;57.680;11.982;2023-10-31T06:38:05;98811.21;;;0.84;100.00
54872;BME280;43914;57.680;11.982;2023-10-31T06:40:30;98812.60;;;0.84;100.00
54872;BME280;43914;57.680;11.982;2023-10-31T06:42:59;98815.82;;;0.82;100.00
54872;BME280;43914;57.680;11.982;2023-10-31T06:45:25;98819.82;;;0.83;100.00
54872;BME280;43914;57.680;11.982;2023-10-31T06:47:50;98825.03;;;0.85;100.00
54872;BME280;43914;57.680;11.982;2023-10-31T06:50:16;98824.05;;;0.86;100.00
54872;BME280;43914;57.680;11.982;2023-10-31T06:52:41;98823.51;;;0.84;100.00
54872;BME280;43914;57.680;11.982;2023-10-31T06:55:07;98822.66;;;0.84;100.00
54872;BME280;43914;57.680;11.982;2023-10-31T06:57:32;98820.63;;;0.82;100.00
54872;BME280;43914;57.680;11.982;2023-10-31T06:59:58;98823.75;;;0.84;100.00
54872;BME280;43914;57.680;11.982;2023-10-31T07:02:23;98816.60;;;0.86;100.00
54872;BME280;43914;57.680;11.982;2023-10-31T07:04:51;98820.92;;;0.91;100.00
54872;BME280;43914;57.680;11.982;2023-10-31T07:07:16;98820.64;;;0.93;100.00
54872;BME280;43914;57.680;11.982;2023-10-31T07:09:42;98814.75;;;0.95;100.00
54872;BME280;43914;57.680;11.982;2023-10-31T07:12:07;98810.68;;;0.98;100.00
54872;BME280;43914;57.680;11.982;2023-10-31T07:14:33;98810.84;;;1.00;100.00
54872;BME280;43914;57.680;11.982;2023-10-31T07:16:58;98806.02;;;1.01;100.00
54872;BME280;43914;57.680;11.982;2023-10-31T07:19:23;98808.71;;;1.02;100.00
54872;BME280;43914;57.680;11.982;2023-10-31T07:21:49;98805.29;;;1.00;100.00
54872;BME280;43914;57.680;11.982;2023-10-31T07:24:15;98810.13;;;1.05;100.00
54872;BME280;43914;57.680;11.982;2023-10-31T07:26:40;98818.46;;;1.05;100.00
54872;BME280;43914;57.680;11.982;2023-10-31T07:29:06;98806.16;;;1.03;100.00
54872;BME280;43914;57.680;11.982;2023-10-31T07:31:31;98805.40;;;1.05;100.00
54872;BME280;43914;57.680;11.982;2023-10-31T07:33:57;98804.48;;;1.04;100.00
54872;BME280;43914;57.680;11.982;2023-10-31T07:36:22;98801.07;;;1.06;100.00
54872;BME280;43914;57.680;11.982;2023-10-31T07:38:48;98800.52;;;1.07;100.00
54872;BME280;43914;57.680;11.982;2023-10-31T07:41:13;98797.59;;;1.08;100.00
54872;BME280;43914;57.680;11.982;2023-10-31T07:43:39;98795.16;;;1.13;100.00
54872;BME280;43914;57.680;11.982;2023-10-31T07:46:04;98790.23;;;1.18;100.00
54872;BME280;43914;57.680;11.982;2023-10-31T07:48:30;98791.55;;;1.22;100.00
54872;BME280;43914;57.680;11.982;2023-10-31T07:50:56;98785.02;;;1.22;100.00
54872;BME280;43914;57.680;11.982;2023-10-31T07:53:22;98778.56;;;1.24;100.00
54872;BME280;43914;57.680;11.982;2023-10-31T07:55:48;98774.83;;;1.25;100.00
54872;BME280;43914;57.680;11.982;2023-10-31T07:58:14;98772.05;;;1.24;100.00
54872;BME280;43914;57.680;11.982;2023-10-31T08:00:40;98767.69;;;1.24;100.00
54872;BME280;43914;57.680;11.982;2023-10-31T08:03:06;98767.94;;;1.28;100.00
54872;BME280;43914;57.680;11.982;2023-10-31T08:05:32;98765.83;;;1.31;100.00
54872;BME280;43914;57.680;11.982;2023-10-31T08:07:57;98767.21;;;1.33;100.00
54872;BME280;43914;57.680;11.982;2023-10-31T08:10:23;98769.72;;;1.34;100.00
54872;BME280;43914;57.680;11.982;2023-10-31T08:12:49;98759.13;;;1.34;100.00
54872;BME280;43914;57.680;11.982;2023-10-31T08:15:14;98751.34;;;1.37;100.00
54872;BME280;43914;57.680;11.982;2023-10-31T08:17:41;98749.48;;;1.40;100.00
54872;BME280;43914;57.680;11.982;2023-10-31T08:20:08;98748.27;;;1.43;100.00
54872;BME280;43914;57.680;11.982;2023-10-31T08:22:34;98753.95;;;1.49;100.00
54872;BME280;43914;57.680;11.982;2023-10-31T08:24:59;98753.89;;;1.54;100.00
54872;BME280;43914;57.680;11.982;2023-10-31T08:27:25;98748.77;;;1.61;100.00
54872;BME280;43914;57.680;11.982;2023-10-31T08:29:50;98743.27;;;1.67;100.00
54872;BME280;43914;57.680;11.982;2023-10-31T08:32:15;98739.89;;;1.70;100.00
54872;BME280;43914;57.680;11.982;2023-10-31T08:34:41;98745.80;;;1.72;100.00
54872;BME280;43914;57.680;11.982;2023-10-31T08:37:06;98753.21;;;1.74;100.00
54872;BME280;43914;57.680;11.982;2023-10-31T08:39:32;98754.23;;;1.73;100.00
54872;BME280;43914;57.680;11.982;2023-10-31T08:41:58;98754.08;;;1.72;100.00
54872;BME280;43914;57.680;11.982;2023-10-31T08:44:24;98744.49;;;1.68;100.00
54872;BME280;43914;57.680;11.982;2023-10-31T08:46:50;98739.73;;;1.67;100.00
54872;BME280;43914;57.680;11.982;2023-10-31T08:49:16;98744.17;;;1.66;100.00
54872;BME280;43914;57.680;11.982;2023-10-31T08:51:42;98747.30;;;1.68;100.00
54872;BME280;43914;57.680;11.982;2023-10-31T08:54:09;98746.11;;;1.75;100.00
54872;BME280;43914;57.680;11.982;2023-10-31T08:56:35;98743.09;;;1.76;100.00
54872;BME280;43914;57.680;11.982;2023-10-31T08:59:00;98746.83;;;1.81;100.00
54872;BME280;43914;57.680;11.982;2023-10-31T09:01:27;98739.24;;;1.85;100.00
54872;BME280;43914;57.680;11.982;2023-10-31T09:03:54;98737.48;;;1.94;100.00
54872;BME280;43914;57.680;11.982;2023-10-31T09:06:21;98734.77;;;1.99;100.00
54872;BME280;43914;57.680;11.982;2023-10-31T09:08:46;98742.67;;;2.03;100.00
54872;BME280;43914;57.680;11.982;2023-10-31T09:11:12;98732.40;;;2.07;100.00
54872;BME280;43914;57.680;11.982;2023-10-31T09:13:37;98734.69;;;2.10;100.00
54872;BME280;43914;57.680;11.982;2023-10-31T09:16:03;98733.39;;;2.10;100.00
54872;BME280;43914;57.680;11.982;2023-10-31T09:18:28;98738.30;;;2.12;100.00
54872;BME280;43914;57.680;11.982;2023-10-31T09:20:54;98734.52;;;2.12;100.00
54872;BME280;43914;57.680;11.982;2023-10-31T09:23:19;98734.71;;;2.14;100.00
54872;BME280;43914;57.680;11.982;2023-10-31T09:25:45;98734.70;;;2.14;100.00
54872;BME280;43914;57.680;11.982;2023-10-31T09:28:11;98724.73;;;2.15;100.00
54872;BME280;43914;57.680;11.982;2023-10-31T09:30:36;98723.02;;;2.15;100.00
54872;BME280;43914;57.680;11.982;2023-10-31T09:33:02;98731.17;;;2.17;100.00
54872;BME280;43914;57.680;11.982;2023-10-31T09:35:27;98736.08;;;2.21;100.00
54872;BME280;43914;57.680;11.982;2023-10-31T09:37:54;98730.14;;;2.21;100.00
54872;BME280;43914;57.680;11.982;2023-10-31T09:40:20;98724.46;;;2.21;100.00
54872;BME280;43914;57.680;11.982;2023-10-31T09:42:46;98725.92;;;2.26;100.00
54872;BME280;43914;57.680;11.982;2023-10-31T09:45:12;98715.45;;;2.29;100.00
54872;BME280;43914;57.680;11.982;2023-10-31T09:47:39;98714.78;;;2.28;100.00
54872;BME280;43914;57.680;11.982;2023-10-31T09:50:06;98713.27;;;2.28;100.00
54872;BME280;43914;57.680;11.982;2023-10-31T09:52:33;98720.63;;;2.29;100.00
54872;BME280;43914;57.680;11.982;2023-10-31T09:54:59;98716.86;;;2.30;100.00
54872;BME280;43914;57.680;11.982;2023-10-31T09:57:25;98718.29;;;2.34;100.00
54872;BME280;43914;57.680;11.982;2023-10-31T09:59:52;98713.42;;;2.36;100.00
54872;BME280;43914;57.680;11.982;2023-10-31T10:02:17;98711.45;;;2.38;100.00
54872;BME280;43914;57.680;11.982;2023-10-31T10:04:43;98714.02;;;2.39;100.00
54872;BME280;43914;57.680;11.982;2023-10-31T10:07:13;98713.98;;;2.37;100.00
54872;BME280;43914;57.680;11.982;2023-10-31T10:09:42;98710.88;;;2.34;100.00
54872;BME280;43914;57.680;11.982;2023-10-31T10:12:12;98712.91;;;2.31;100.00
54872;BME280;43914;57.680;11.982;2023-10-31T10:14:38;98712.67;;;2.33;100.00
54872;BME280;43914;57.680;11.982;2023-10-31T10:17:36;98711.73;;;2.36;100.00
54872;BME280;43914;57.680;11.982;2023-10-31T10:22:31;98701.50;;;2.40;100.00
54872;BME280;43914;57.680;11.982;2023-10-31T10:24:57;98698.70;;;2.41;100.00
54872;BME280;43914;57.680;11.982;2023-10-31T10:27:23;98694.92;;;2.44;100.00
54872;BME280;43914;57.680;11.982;2023-10-31T10:29:53;98694.96;;;2.46;100.00
54872;BME280;43914;57.680;11.982;2023-10-31T10:32:18;98689.48;;;2.41;100.00
54872;BME280;43914;57.680;11.982;2023-10-31T10:34:45;98694.71;;;2.42;100.00
54872;BME280;43914;57.680;11.982;2023-10-31T10:37:11;98684.60;;;2.42;100.00
54872;BME280;43914;57.680;11.982;2023-10-31T10:39:39;98685.73;;;2.44;100.00
54872;BME280;43914;57.680;11.982;2023-10-31T10:42:10;98690.61;;;2.47;100.00
54872;BME280;43914;57.680;11.982;2023-10-31T10:44:41;98688.52;;;2.48;100.00
54872;BME280;43914;57.680;11.982;2023-10-31T10:47:09;98684.27;;;2.48;100.00
54872;BME280;43914;57.680;11.982;2023-10-31T10:49:37;98682.34;;;2.49;100.00
54872;BME280;43914;57.680;11.982;2023-10-31T10:54:58;98674.96;;;2.53;100.00
54872;BME280;43914;57.680;11.982;2023-10-31T10:57:37;98670.08;;;2.53;100.00
54872;BME280;43914;57.680;11.982;2023-10-31T11:00:08;98672.64;;;2.56;100.00
54872;BME280;43914;57.680;11.982;2023-10-31T11:02:40;98674.27;;;2.59;100.00
54872;BME280;43914;57.680;11.982;2023-10-31T11:05:08;98682.38;;;2.63;100.00
54872;BME280;43914;57.680;11.982;2023-10-31T11:07:35;98677.97;;;2.62;100.00
54872;BME280;43914;57.680;11.982;2023-10-31T11:10:02;98674.80;;;2.65;100.00
54872;BME280;43914;57.680;11.982;2023-10-31T11:12:31;98674.03;;;2.69;100.00
54872;BME280;43914;57.680;11.982;2023-10-31T11:14:58;98666.61;;;2.70;100.00
54872;BME280;43914;57.680;11.982;2023-10-31T11:17:30;98662.89;;;2.72;100.00
54872;BME280;43914;57.680;11.982;2023-10-31T11:19:57;98664.09;;;2.73;100.00
54872;BME280;43914;57.680;11.982;2023-10-31T11:22:23;98659.16;;;2.75;100.00
54872;BME280;43914;57.680;11.982;2023-10-31T11:24:49;98658.79;;;2.78;100.00
54872;BME280;43914;57.680;11.982;2023-10-31T11:27:17;98653.34;;;2.79;100.00
54872;BME280;43914;57.680;11.982;2023-10-31T11:29:43;98654.77;;;2.85;100.00
54872;BME280;43914;57.680;11.982;2023-10-31T11:32:09;98654.95;;;2.89;100.00
54872;BME280;43914;57.680;11.982;2023-10-31T11:34:37;98658.25;;;2.94;100.00
54872;BME280;43914;57.680;11.982;2023-10-31T11:37:31;98656.57;;;2.97;100.00
54872;BME280;43914;57.680;11.982;2023-10-31T11:40:21;98657.77;;;2.98;100.00
54872;BME280;43914;57.680;11.982;2023-10-31T11:42:57;98658.98;;;3.00;100.00
54872;BME280;43914;57.680;11.982;2023-10-31T11:45:49;98657.91;;;3.04;100.00
54872;BME280;43914;57.680;11.982;2023-10-31T11:48:15;98657.43;;;3.08;100.00
54872;BME280;43914;57.680;11.982;2023-10-31T11:50:41;98660.30;;;3.10;100.00
54872;BME280;43914;57.680;11.982;2023-10-31T11:55:43;98648.50;;;3.13;100.00
54872;BME280;43914;57.680;11.982;2023-10-31T11:58:21;98649.98;;;3.14;100.00
54872;BME280;43914;57.680;11.982;2023-10-31T12:00:52;98643.05;;;3.19;100.00
54872;BME280;43914;57.680;11.982;2023-10-31T12:03:20;98639.27;;;3.23;100.00
54872;BME280;43914;57.680;11.982;2023-10-31T12:05:59;98643.63;;;3.27;100.00
54872;BME280;43914;57.680;11.982;2023-10-31T12:08:29;98642.80;;;3.30;100.00
54872;BME280;43914;57.680;11.982;2023-10-31T12:13:29;98635.02;;;3.33;100.00
54872;BME280;43914;57.680;11.982;2023-10-31T12:15:55;98633.61;;;3.31;100.00
54872;BME280;43914;57.680;11.982;2023-10-31T12:18:21;98635.66;;;3.32;100.00
54872;BME280;43914;57.680;11.982;2023-10-31T12:20:48;98636.85;;;3.32;100.00
54872;BME280;43914;57.680;11.982;2023-10-31T12:23:15;98637.73;;;3.35;100.00
54872;BME280;43914;57.680;11.982;2023-10-31T12:25:51;98638.73;;;3.38;100.00
54872;BME280;43914;57.680;11.982;2023-10-31T12:28:25;98644.41;;;3.41;100.00
54872;BME280;43914;57.680;11.982;2023-10-31T12:30:52;98647.20;;;3.40;100.00
54872;BME280;43914;57.680;11.982;2023-10-31T12:33:20;98648.63;;;3.39;100.00
54872;BME280;43914;57.680;11.982;2023-10-31T12:35:48;98650.52;;;3.39;100.00
54872;BME280;43914;57.680;11.982;2023-10-31T12:38:15;98653.48;;;3.42;100.00
54872;BME280;43914;57.680;11.982;2023-10-31T12:40:42;98652.83;;;3.42;100.00
54872;BME280;43914;57.680;11.982;2023-10-31T12:43:09;98661.45;;;3.45;100.00
54872;BME280;43914;57.680;11.982;2023-10-31T12:45:35;98665.48;;;3.49;100.00
54872;BME280;43914;57.680;11.982;2023-10-31T12:48:01;98665.80;;;3.48;100.00
54872;BME280;43914;57.680;11.982;2023-10-31T12:50:28;98667.73;;;3.45;100.00
54872;BME280;43914;57.680;11.982;2023-10-31T12:52:54;98659.89;;;3.42;100.00
54872;BME280;43914;57.680;11.982;2023-10-31T12:55:23;98662.39;;;3.42;100.00
54872;BME280;43914;57.680;11.982;2023-10-31T12:57:49;98656.69;;;3.39;100.00